sensor_id;sensor_type;location;lat;lon;timestamp;P1;durP1;ratioP1;P2;durP2;ratioP2
75739;SDS011;64357;51.344;6.550;2023-05-07T00:01:05;7.68;;;3.72;;
75739;SDS011;64357;51.344;6.550;2023-05-07T00:03:31;8.70;;;3.63;;
75739;SDS011;64357;51.344;6.550;2023-05-07T00:05:57;8.13;;;3.35;;
75739;SDS011;64357;51.344;6.550;2023-05-07T00:08:23;8.85;;;3.55;;
75739;SDS011;64357;51.344;6.550;2023-05-07T00:10:50;7.13;;;3.27;;
75739;SDS011;64357;51.344;6.550;2023-05-07T00:13:16;6.88;;;3.35;;
75739;SDS011;64357;51.344;6.550;2023-05-07T00:15:41;11.13;;;4.28;;
75739;SDS011;64357;51.344;6.550;2023-05-07T00:18:07;9.67;;;3.50;;
75739;SDS011;64357;51.344;6.550;2023-05-07T00:20:32;7.55;;;3.45;;
75739;SDS011;64357;51.344;6.550;2023-05-07T00:23:00;8.52;;;3.67;;
75739;SDS011;64357;51.344;6.550;2023-05-07T00:25:25;8.03;;;3.73;;
75739;SDS011;64357;51.344;6.550;2023-05-07T00:27:53;6.20;;;3.25;;
75739;SDS011;64357;51.344;6.550;2023-05-07T00:30:27;7.20;;;3.60;;
75739;SDS011;64357;51.344;6.550;2023-05-07T00:32:53;8.15;;;3.40;;
75739;SDS011;64357;51.344;6.550;2023-05-07T00:35:25;7.72;;;3.30;;
75739;SDS011;64357;51.344;6.550;2023-05-07T00:37:51;7.97;;;3.33;;
75739;SDS011;64357;51.344;6.550;2023-05-07T00:40:16;8.05;;;3.30;;
75739;SDS011;64357;51.344;6.550;2023-05-07T00:42:41;11.38;;;3.97;;
75739;SDS011;64357;51.344;6.550;2023-05-07T00:45:12;7.95;;;3.35;;
75739;SDS011;64357;51.344;6.550;2023-05-07T00:47:41;7.68;;;3.42;;
75739;SDS011;64357;51.344;6.550;2023-05-07T00:50:09;7.65;;;3.45;;
75739;SDS011;64357;51.344;6.550;2023-05-07T00:52:35;8.48;;;3.72;;
75739;SDS011;64357;51.344;6.550;2023-05-07T00:55:04;7.78;;;3.70;;
75739;SDS011;64357;51.344;6.550;2023-05-07T00:57:36;6.80;;;3.00;;
75739;SDS011;64357;51.344;6.550;2023-05-07T01:00:06;7.78;;;3.13;;
75739;SDS011;64357;51.344;6.550;2023-05-07T01:02:33;6.97;;;3.22;;
75739;SDS011;64357;51.344;6.550;2023-05-07T01:05:02;7.05;;;2.83;;
75739;SDS011;64357;51.344;6.550;2023-05-07T01:09:59;5.80;;;2.88;;
75739;SDS011;64357;51.344;6.550;2023-05-07T01:12:25;7.40;;;3.20;;
75739;SDS011;64357;51.344;6.550;2023-05-07T01:14:52;6.68;;;3.05;;
75739;SDS011;64357;51.344;6.550;2023-05-07T01:17:18;7.95;;;3.10;;
75739;SDS011;64357;51.344;6.550;2023-05-07T01:19:44;6.55;;;2.75;;
75739;SDS011;64357;51.344;6.550;2023-05-07T01:22:12;8.40;;;3.13;;
75739;SDS011;64357;51.344;6.550;2023-05-07T01:24:46;7.60;;;2.80;;
75739;SDS011;64357;51.344;6.550;2023-05-07T01:27:12;7.03;;;2.90;;
75739;SDS011;64357;51.344;6.550;2023-05-07T01:29:37;6.37;;;2.83;;
75739;SDS011;64357;51.344;6.550;2023-05-07T01:32:08;5.97;;;2.80;;
75739;SDS011;64357;51.344;6.550;2023-05-07T01:34:37;6.82;;;2.83;;
75739;SDS011;64357;51.344;6.550;2023-05-07T01:37:02;6.32;;;2.70;;
75739;SDS011;64357;51.344;6.550;2023-05-07T01:39:31;7.80;;;3.25;;
75739;SDS011;64357;51.344;6.550;2023-05-07T01:41:57;7.65;;;2.92;;
75739;SDS011;64357;51.344;6.550;2023-05-07T01:44:26;7.25;;;2.97;;
75739;SDS011;64357;51.344;6.550;2023-05-07T01:46:54;6.55;;;3.10;;
75739;SDS011;64357;51.344;6.550;2023-05-07T01:49:24;6.07;;;2.80;;
75739;SDS011;64357;51.344;6.550;2023-05-07T01:51:50;7.55;;;2.92;;
75739;SDS011;64357;51.344;6.550;2023-05-07T01:54:16;7.05;;;3.00;;
75739;SDS011;64357;51.344;6.550;2023-05-07T01:56:42;6.28;;;2.95;;
75739;SDS011;64357;51.344;6.550;2023-05-07T01:59:09;8.30;;;3.23;;
75739;SDS011;64357;51.344;6.550;2023-05-07T02:01:37;6.38;;;2.85;;
75739;SDS011;64357;51.344;6.550;2023-05-07T02:04:05;8.55;;;3.22;;
75739;SDS011;64357;51.344;6.550;2023-05-07T02:06:30;6.40;;;3.00;;
75739;SDS011;64357;51.344;6.550;2023-05-07T02:08:58;8.55;;;3.25;;
75739;SDS011;64357;51.344;6.550;2023-05-07T02:11:23;9.57;;;3.53;;
75739;SDS011;64357;51.344;6.550;2023-05-07T02:13:50;7.30;;;3.33;;
75739;SDS011;64357;51.344;6.550;2023-05-07T02:16:17;7.23;;;3.50;;
75739;SDS011;64357;51.344;6.550;2023-05-07T02:18:46;8.10;;;3.70;;
75739;SDS011;64357;51.344;6.550;2023-05-07T02:21:14;7.70;;;3.40;;
75739;SDS011;64357;51.344;6.550;2023-05-07T02:23:42;7.18;;;3.45;;
75739;SDS011;64357;51.344;6.550;2023-05-07T02:26:07;9.53;;;3.50;;
75739;SDS011;64357;51.344;6.550;2023-05-07T02:28:36;10.23;;;3.60;;
75739;SDS011;64357;51.344;6.550;2023-05-07T02:31:07;8.52;;;2.97;;
75739;SDS011;64357;51.344;6.550;2023-05-07T02:33:32;7.22;;;3.50;;
75739;SDS011;64357;51.344;6.550;2023-05-07T02:36:09;7.80;;;3.45;;
75739;SDS011;64357;51.344;6.550;2023-05-07T02:38:35;7.47;;;2.83;;
75739;SDS011;64357;51.344;6.550;2023-05-07T02:41:00;8.35;;;3.45;;
75739;SDS011;64357;51.344;6.550;2023-05-07T02:43:26;7.15;;;3.72;;
75739;SDS011;64357;51.344;6.550;2023-05-07T02:46:07;9.75;;;4.15;;
75739;SDS011;64357;51.344;6.550;2023-05-07T02:48:33;8.50;;;3.70;;
75739;SDS011;64357;51.344;6.550;2023-05-07T02:51:01;8.90;;;3.50;;
75739;SDS011;64357;51.344;6.550;2023-05-07T02:53:30;8.40;;;3.42;;
75739;SDS011;64357;51.344;6.550;2023-05-07T02:55:56;8.65;;;3.60;;
75739;SDS011;64357;51.344;6.550;2023-05-07T02:58:23;12.35;;;3.92;;
75739;SDS011;64357;51.344;6.550;2023-05-07T03:00:48;10.60;;;3.58;;
75739;SDS011;64357;51.344;6.550;2023-05-07T03:03:14;9.13;;;3.50;;
75739;SDS011;64357;51.344;6.550;2023-05-07T03:05:40;9.50;;;3.70;;
75739;SDS011;64357;51.344;6.550;2023-05-07T03:08:06;8.27;;;3.45;;
75739;SDS011;64357;51.344;6.550;2023-05-07T03:10:34;8.63;;;3.85;;
75739;SDS011;64357;51.344;6.550;2023-05-07T03:13:00;6.65;;;3.10;;
75739;SDS011;64357;51.344;6.550;2023-05-07T03:15:28;9.15;;;3.70;;
75739;SDS011;64357;51.344;6.550;2023-05-07T03:17:57;8.27;;;3.30;;
75739;SDS011;64357;51.344;6.550;2023-05-07T03:20:22;8.43;;;3.17;;
75739;SDS011;64357;51.344;6.550;2023-05-07T03:22:48;7.23;;;3.30;;
75739;SDS011;64357;51.344;6.550;2023-05-07T03:25:13;8.52;;;3.40;;
75739;SDS011;64357;51.344;6.550;2023-05-07T03:27:39;8.18;;;3.47;;
75739;SDS011;64357;51.344;6.550;2023-05-07T03:30:07;7.68;;;3.45;;
75739;SDS011;64357;51.344;6.550;2023-05-07T03:32:33;8.13;;;3.75;;
75739;SDS011;64357;51.344;6.550;2023-05-07T03:35:01;9.07;;;3.42;;
75739;SDS011;64357;51.344;6.550;2023-05-07T03:37:29;8.45;;;3.85;;
75739;SDS011;64357;51.344;6.550;2023-05-07T03:39:56;10.60;;;3.45;;
75739;SDS011;64357;51.344;6.550;2023-05-07T03:42:22;8.53;;;3.60;;
75739;SDS011;64357;51.344;6.550;2023-05-07T03:44:51;7.60;;;3.70;;
75739;SDS011;64357;51.344;6.550;2023-05-07T03:47:18;8.67;;;3.60;;
75739;SDS011;64357;51.344;6.550;2023-05-07T03:49:44;7.18;;;3.40;;
75739;SDS011;64357;51.344;6.550;2023-05-07T03:52:09;9.63;;;3.78;;
75739;SDS011;64357;51.344;6.550;2023-05-07T03:54:35;8.45;;;3.40;;
75739;SDS011;64357;51.344;6.550;2023-05-07T03:57:05;7.07;;;3.35;;
75739;SDS011;64357;51.344;6.550;2023-05-07T03:59:30;7.30;;;3.25;;
75739;SDS011;64357;51.344;6.550;2023-05-07T04:01:56;7.53;;;3.27;;
75739;SDS011;64357;51.344;6.550;2023-05-07T04:04:21;6.50;;;3.10;;
75739;SDS011;64357;51.344;6.550;2023-05-07T04:06:46;6.40;;;3.28;;
75739;SDS011;64357;51.344;6.550;2023-05-07T04:09:12;7.97;;;3.38;;
75739;SDS011;64357;51.344;6.550;2023-05-07T04:11:37;7.00;;;3.30;;
75739;SDS011;64357;51.344;6.550;2023-05-07T04:14:05;7.80;;;3.05;;
75739;SDS011;64357;51.344;6.550;2023-05-07T04:16:33;8.30;;;3.45;;
75739;SDS011;64357;51.344;6.550;2023-05-07T04:19:02;7.45;;;3.70;;
75739;SDS011;64357;51.344;6.550;2023-05-07T04:21:27;8.27;;;3.47;;
75739;SDS011;64357;51.344;6.550;2023-05-07T04:23:53;5.93;;;2.90;;
75739;SDS011;64357;51.344;6.550;2023-05-07T04:26:18;8.70;;;3.17;;
75739;SDS011;64357;51.344;6.550;2023-05-07T04:28:43;7.32;;;2.78;;
75739;SDS011;64357;51.344;6.550;2023-05-07T04:31:12;5.60;;;2.67;;
75739;SDS011;64357;51.344;6.550;2023-05-07T04:33:37;6.32;;;2.72;;
75739;SDS011;64357;51.344;6.550;2023-05-07T04:36:03;8.80;;;2.93;;
75739;SDS011;64357;51.344;6.550;2023-05-07T04:38:34;7.05;;;3.00;;
75739;SDS011;64357;51.344;6.550;2023-05-07T04:41:03;7.22;;;2.78;;
75739;SDS011;64357;51.344;6.550;2023-05-07T04:43:30;8.35;;;2.90;;
75739;SDS011;64357;51.344;6.550;2023-05-07T04:45:55;6.05;;;2.60;;
75739;SDS011;64357;51.344;6.550;2023-05-07T04:48:23;7.70;;;3.08;;
75739;SDS011;64357;51.344;6.550;2023-05-07T04:50:51;6.90;;;2.78;;
75739;SDS011;64357;51.344;6.550;2023-05-07T04:53:19;5.78;;;2.67;;
75739;SDS011;64357;51.344;6.550;2023-05-07T04:55:47;6.82;;;2.90;;
75739;SDS011;64357;51.344;6.550;2023-05-07T04:58:13;7.57;;;2.55;;
75739;SDS011;64357;51.344;6.550;2023-05-07T05:00:38;5.72;;;2.42;;
75739;SDS011;64357;51.344;6.550;2023-05-07T05:03:04;6.85;;;2.60;;
75739;SDS011;64357;51.344;6.550;2023-05-07T05:05:31;6.82;;;2.78;;
75739;SDS011;64357;51.344;6.550;2023-05-07T05:07:59;6.47;;;2.65;;
75739;SDS011;64357;51.344;6.550;2023-05-07T05:10:27;7.82;;;2.97;;
75739;SDS011;64357;51.344;6.550;2023-05-07T05:12:53;5.27;;;2.47;;
75739;SDS011;64357;51.344;6.550;2023-05-07T05:15:18;4.93;;;2.20;;
75739;SDS011;64357;51.344;6.550;2023-05-07T05:17:43;6.57;;;2.37;;
75739;SDS011;64357;51.344;6.550;2023-05-07T05:20:11;5.85;;;2.45;;
75739;SDS011;64357;51.344;6.550;2023-05-07T05:22:37;7.00;;;2.65;;
75739;SDS011;64357;51.344;6.550;2023-05-07T05:25:02;6.25;;;2.20;;
75739;SDS011;64357;51.344;6.550;2023-05-07T05:27:28;5.18;;;2.38;;
75739;SDS011;64357;51.344;6.550;2023-05-07T05:29:56;8.05;;;2.58;;
75739;SDS011;64357;51.344;6.550;2023-05-07T05:32:23;6.07;;;2.53;;
75739;SDS011;64357;51.344;6.550;2023-05-07T05:34:48;7.23;;;2.60;;
75739;SDS011;64357;51.344;6.550;2023-05-07T05:37:14;4.25;;;2.28;;
75739;SDS011;64357;51.344;6.550;2023-05-07T05:39:39;6.00;;;2.40;;
75739;SDS011;64357;51.344;6.550;2023-05-07T05:42:05;6.55;;;2.53;;
75739;SDS011;64357;51.344;6.550;2023-05-07T05:44:33;4.50;;;2.15;;
75739;SDS011;64357;51.344;6.550;2023-05-07T05:46:58;6.47;;;2.03;;
75739;SDS011;64357;51.344;6.550;2023-05-07T05:49:25;6.97;;;2.63;;
75739;SDS011;64357;51.344;6.550;2023-05-07T05:51:51;8.07;;;2.50;;
75739;SDS011;64357;51.344;6.550;2023-05-07T05:54:16;6.53;;;2.33;;
75739;SDS011;64357;51.344;6.550;2023-05-07T05:56:42;6.67;;;2.70;;
75739;SDS011;64357;51.344;6.550;2023-05-07T05:59:07;6.30;;;2.17;;
75739;SDS011;64357;51.344;6.550;2023-05-07T06:01:33;7.47;;;2.17;;
75739;SDS011;64357;51.344;6.550;2023-05-07T06:04:00;4.28;;;1.85;;
75739;SDS011;64357;51.344;6.550;2023-05-07T06:06:28;7.60;;;2.35;;
75739;SDS011;64357;51.344;6.550;2023-05-07T06:08:53;4.72;;;2.08;;
75739;SDS011;64357;51.344;6.550;2023-05-07T06:11:19;6.18;;;2.35;;
75739;SDS011;64357;51.344;6.550;2023-05-07T06:13:45;6.22;;;2.42;;
75739;SDS011;64357;51.344;6.550;2023-05-07T06:16:10;7.18;;;2.03;;
75739;SDS011;64357;51.344;6.550;2023-05-07T06:18:40;5.95;;;1.92;;
75739;SDS011;64357;51.344;6.550;2023-05-07T06:21:05;7.18;;;2.22;;
75739;SDS011;64357;51.344;6.550;2023-05-07T06:23:31;6.35;;;2.20;;
75739;SDS011;64357;51.344;6.550;2023-05-07T06:25:56;4.45;;;1.92;;
75739;SDS011;64357;51.344;6.550;2023-05-07T06:28:22;5.53;;;1.80;;
75739;SDS011;64357;51.344;6.550;2023-05-07T06:30:47;4.33;;;1.70;;
75739;SDS011;64357;51.344;6.550;2023-05-07T06:33:17;4.45;;;1.67;;
75739;SDS011;64357;51.344;6.550;2023-05-07T06:35:45;5.05;;;1.95;;
75739;SDS011;64357;51.344;6.550;2023-05-07T06:38:10;6.47;;;1.85;;
75739;SDS011;64357;51.344;6.550;2023-05-07T06:40:37;3.60;;;1.40;;
75739;SDS011;64357;51.344;6.550;2023-05-07T06:43:02;4.93;;;1.70;;
75739;SDS011;64357;51.344;6.550;2023-05-07T06:45:27;4.40;;;1.80;;
75739;SDS011;64357;51.344;6.550;2023-05-07T06:47:53;4.20;;;1.50;;
75739;SDS011;64357;51.344;6.550;2023-05-07T06:50:18;4.73;;;1.60;;
75739;SDS011;64357;51.344;6.550;2023-05-07T06:52:43;3.33;;;1.40;;
75739;SDS011;64357;51.344;6.550;2023-05-07T06:55:09;3.67;;;1.53;;
75739;SDS011;64357;51.344;6.550;2023-05-07T06:57:36;5.43;;;2.05;;
75739;SDS011;64357;51.344;6.550;2023-05-07T07:00:04;2.63;;;1.33;;
75739;SDS011;64357;51.344;6.550;2023-05-07T07:02:32;3.97;;;1.30;;
75739;SDS011;64357;51.344;6.550;2023-05-07T07:04:57;3.78;;;1.48;;
75739;SDS011;64357;51.344;6.550;2023-05-07T07:07:25;5.55;;;1.42;;
75739;SDS011;64357;51.344;6.550;2023-05-07T07:09:51;4.13;;;1.53;;
75739;SDS011;64357;51.344;6.550;2023-05-07T07:12:16;3.13;;;1.30;;
75739;SDS011;64357;51.344;6.550;2023-05-07T07:14:41;3.53;;;1.40;;
75739;SDS011;64357;51.344;6.550;2023-05-07T07:17:07;5.18;;;1.50;;
75739;SDS011;64357;51.344;6.550;2023-05-07T07:19:32;4.03;;;1.53;;
75739;SDS011;64357;51.344;6.550;2023-05-07T07:21:57;3.30;;;1.33;;
75739;SDS011;64357;51.344;6.550;2023-05-07T07:24:23;2.92;;;1.48;;
75739;SDS011;64357;51.344;6.550;2023-05-07T07:26:50;4.13;;;1.58;;
75739;SDS011;64357;51.344;6.550;2023-05-07T07:29:16;5.17;;;1.50;;
75739;SDS011;64357;51.344;6.550;2023-05-07T07:31:43;3.28;;;1.42;;
75739;SDS011;64357;51.344;6.550;2023-05-07T07:34:09;3.47;;;1.40;;
75739;SDS011;64357;51.344;6.550;2023-05-07T07:36:34;3.87;;;1.53;;
75739;SDS011;64357;51.344;6.550;2023-05-07T07:39:00;4.60;;;1.60;;
75739;SDS011;64357;51.344;6.550;2023-05-07T07:41:25;3.87;;;1.50;;
75739;SDS011;64357;51.344;6.550;2023-05-07T07:43:50;3.93;;;1.57;;
75739;SDS011;64357;51.344;6.550;2023-05-07T07:46:16;3.33;;;1.50;;
75739;SDS011;64357;51.344;6.550;2023-05-07T07:48:41;5.32;;;1.50;;
75739;SDS011;64357;51.344;6.550;2023-05-07T07:51:07;3.27;;;1.63;;
75739;SDS011;64357;51.344;6.550;2023-05-07T07:53:32;4.60;;;1.63;;
75739;SDS011;64357;51.344;6.550;2023-05-07T07:55:58;3.45;;;1.40;;
75739;SDS011;64357;51.344;6.550;2023-05-07T07:58:23;4.77;;;1.60;;
75739;SDS011;64357;51.344;6.550;2023-05-07T08:00:49;4.05;;;1.63;;
75739;SDS011;64357;51.344;6.550;2023-05-07T08:03:16;3.75;;;1.63;;
75739;SDS011;64357;51.344;6.550;2023-05-07T08:05:46;3.95;;;1.70;;
75739;SDS011;64357;51.344;6.550;2023-05-07T08:08:14;3.92;;;1.50;;
75739;SDS011;64357;51.344;6.550;2023-05-07T08:10:39;5.32;;;2.47;;
75739;SDS011;64357;51.344;6.550;2023-05-07T08:13:05;3.83;;;1.55;;
75739;SDS011;64357;51.344;6.550;2023-05-07T08:15:33;5.10;;;1.58;;
75739;SDS011;64357;51.344;6.550;2023-05-07T08:18:04;4.55;;;1.65;;
75739;SDS011;64357;51.344;6.550;2023-05-07T08:20:29;4.05;;;1.70;;
75739;SDS011;64357;51.344;6.550;2023-05-07T08:22:54;5.45;;;1.67;;
75739;SDS011;64357;51.344;6.550;2023-05-07T08:25:22;2.10;;;1.20;;
75739;SDS011;64357;51.344;6.550;2023-05-07T08:27:48;3.53;;;1.63;;
75739;SDS011;64357;51.344;6.550;2023-05-07T08:30:18;4.78;;;1.67;;
75739;SDS011;64357;51.344;6.550;2023-05-07T08:32:47;4.70;;;1.35;;
75739;SDS011;64357;51.344;6.550;2023-05-07T08:35:17;4.15;;;1.50;;
75739;SDS011;64357;51.344;6.550;2023-05-07T08:37:45;4.50;;;1.65;;
75739;SDS011;64357;51.344;6.550;2023-05-07T08:40:10;5.53;;;1.70;;
75739;SDS011;64357;51.344;6.550;2023-05-07T08:42:42;3.05;;;1.40;;
75739;SDS011;64357;51.344;6.550;2023-05-07T08:45:12;3.88;;;1.70;;
75739;SDS011;64357;51.344;6.550;2023-05-07T08:47:47;4.72;;;1.67;;
75739;SDS011;64357;51.344;6.550;2023-05-07T08:50:17;3.15;;;1.30;;
75739;SDS011;64357;51.344;6.550;2023-05-07T08:52:43;5.10;;;1.73;;
75739;SDS011;64357;51.344;6.550;2023-05-07T08:55:09;2.92;;;1.45;;
75739;SDS011;64357;51.344;6.550;2023-05-07T08:57:37;2.90;;;1.40;;
75739;SDS011;64357;51.344;6.550;2023-05-07T09:00:03;4.05;;;1.67;;
75739;SDS011;64357;51.344;6.550;2023-05-07T09:02:34;3.55;;;1.50;;
75739;SDS011;64357;51.344;6.550;2023-05-07T09:05:01;3.08;;;1.40;;
75739;SDS011;64357;51.344;6.550;2023-05-07T09:07:29;3.00;;;1.45;;
75739;SDS011;64357;51.344;6.550;2023-05-07T09:09:56;3.05;;;1.38;;
75739;SDS011;64357;51.344;6.550;2023-05-07T09:12:24;4.40;;;1.50;;
75739;SDS011;64357;51.344;6.550;2023-05-07T09:14:49;2.92;;;1.38;;
75739;SDS011;64357;51.344;6.550;2023-05-07T09:17:15;2.70;;;1.25;;
75739;SDS011;64357;51.344;6.550;2023-05-07T09:19:42;5.47;;;2.20;;
75739;SDS011;64357;51.344;6.550;2023-05-07T09:22:09;5.85;;;1.83;;
75739;SDS011;64357;51.344;6.550;2023-05-07T09:24:34;5.07;;;1.60;;
75739;SDS011;64357;51.344;6.550;2023-05-07T09:27:03;2.95;;;1.30;;
75739;SDS011;64357;51.344;6.550;2023-05-07T09:29:30;2.88;;;1.60;;
75739;SDS011;64357;51.344;6.550;2023-05-07T09:32:05;5.05;;;1.35;;
75739;SDS011;64357;51.344;6.550;2023-05-07T09:34:39;5.32;;;1.80;;
75739;SDS011;64357;51.344;6.550;2023-05-07T09:37:07;4.20;;;1.40;;
75739;SDS011;64357;51.344;6.550;2023-05-07T09:39:39;4.22;;;1.55;;
75739;SDS011;64357;51.344;6.550;2023-05-07T09:42:11;3.28;;;1.70;;
75739;SDS011;64357;51.344;6.550;2023-05-07T09:44:37;3.25;;;1.40;;
75739;SDS011;64357;51.344;6.550;2023-05-07T09:47:06;3.65;;;1.10;;
75739;SDS011;64357;51.344;6.550;2023-05-07T09:49:36;3.08;;;1.30;;
75739;SDS011;64357;51.344;6.550;2023-05-07T09:52:07;4.70;;;1.20;;
75739;SDS011;64357;51.344;6.550;2023-05-07T09:54:36;4.80;;;1.35;;
75739;SDS011;64357;51.344;6.550;2023-05-07T09:57:11;4.18;;;1.42;;
75739;SDS011;64357;51.344;6.550;2023-05-07T09:59:38;3.92;;;1.40;;
75739;SDS011;64357;51.344;6.550;2023-05-07T10:02:09;3.70;;;1.15;;
75739;SDS011;64357;51.344;6.550;2023-05-07T10:04:38;3.65;;;1.10;;
75739;SDS011;64357;51.344;6.550;2023-05-07T10:07:05;2.05;;;1.15;;
75739;SDS011;64357;51.344;6.550;2023-05-07T10:09:32;3.40;;;1.55;;
75739;SDS011;64357;51.344;6.550;2023-05-07T10:11:57;4.65;;;1.67;;
75739;SDS011;64357;51.344;6.550;2023-05-07T10:14:26;2.17;;;0.95;;
75739;SDS011;64357;51.344;6.550;2023-05-07T10:16:53;3.63;;;1.15;;
75739;SDS011;64357;51.344;6.550;2023-05-07T10:19:20;2.40;;;1.13;;
75739;SDS011;64357;51.344;6.550;2023-05-07T10:21:51;3.08;;;1.50;;
75739;SDS011;64357;51.344;6.550;2023-05-07T10:24:25;4.38;;;1.65;;
75739;SDS011;64357;51.344;6.550;2023-05-07T10:26:54;2.90;;;1.20;;
75739;SDS011;64357;51.344;6.550;2023-05-07T10:35:16;2.65;;;1.20;;
75739;SDS011;64357;51.344;6.550;2023-05-07T10:37:45;2.90;;;1.00;;
75739;SDS011;64357;51.344;6.550;2023-05-07T10:40:11;1.55;;;0.82;;
75739;SDS011;64357;51.344;6.550;2023-05-07T10:42:38;3.17;;;0.90;;
75739;SDS011;64357;51.344;6.550;2023-05-07T10:45:13;2.88;;;0.93;;
75739;SDS011;64357;51.344;6.550;2023-05-07T10:50:24;4.13;;;1.20;;
75739;SDS011;64357;51.344;6.550;2023-05-07T10:53:25;2.45;;;1.17;;
75739;SDS011;64357;51.344;6.550;2023-05-07T10:55:43;2.25;;;1.05;;
75739;SDS011;64357;51.344;6.550;2023-05-07T11:00:55;3.30;;;1.30;;
75739;SDS011;64357;51.344;6.550;2023-05-07T11:03:28;3.40;;;1.00;;
75739;SDS011;64357;51.344;6.550;2023-05-07T11:09:12;3.20;;;0.80;;
75739;SDS011;64357;51.344;6.550;2023-05-07T11:14:14;1.48;;;0.85;;
75739;SDS011;64357;51.344;6.550;2023-05-07T11:17:02;3.35;;;1.05;;
75739;SDS011;64357;51.344;6.550;2023-05-07T11:25:01;2.33;;;1.00;;
75739;SDS011;64357;51.344;6.550;2023-05-07T11:27:31;3.72;;;1.10;;
75739;SDS011;64357;51.344;6.550;2023-05-07T11:29:57;1.30;;;0.70;;
75739;SDS011;64357;51.344;6.550;2023-05-07T11:32:23;3.45;;;1.10;;
75739;SDS011;64357;51.344;6.550;2023-05-07T11:34:53;2.55;;;0.75;;
75739;SDS011;64357;51.344;6.550;2023-05-07T11:37:20;4.63;;;1.10;;
75739;SDS011;64357;51.344;6.550;2023-05-07T11:39:46;4.07;;;1.30;;
75739;SDS011;64357;51.344;6.550;2023-05-07T11:45:00;1.27;;;0.88;;
75739;SDS011;64357;51.344;6.550;2023-05-07T11:47:35;2.83;;;1.10;;
75739;SDS011;64357;51.344;6.550;2023-05-07T11:50:06;2.60;;;1.10;;
75739;SDS011;64357;51.344;6.550;2023-05-07T11:52:35;2.80;;;0.90;;
75739;SDS011;64357;51.344;6.550;2023-05-07T11:55:04;4.05;;;1.17;;
75739;SDS011;64357;51.344;6.550;2023-05-07T11:57:29;1.17;;;0.77;;
75739;SDS011;64357;51.344;6.550;2023-05-07T11:59:59;2.72;;;1.00;;
75739;SDS011;64357;51.344;6.550;2023-05-07T12:02:27;2.22;;;0.90;;
75739;SDS011;64357;51.344;6.550;2023-05-07T12:04:55;0.65;;;0.60;;
75739;SDS011;64357;51.344;6.550;2023-05-07T12:07:23;2.42;;;0.77;;
75739;SDS011;64357;51.344;6.550;2023-05-07T12:09:49;1.98;;;0.63;;
75739;SDS011;64357;51.344;6.550;2023-05-07T12:12:15;1.95;;;0.68;;
75739;SDS011;64357;51.344;6.550;2023-05-07T12:14:44;4.93;;;1.17;;
75739;SDS011;64357;51.344;6.550;2023-05-07T12:17:11;1.85;;;0.90;;
75739;SDS011;64357;51.344;6.550;2023-05-07T12:19:43;9.00;;;1.90;;
75739;SDS011;64357;51.344;6.550;2023-05-07T12:22:12;1.50;;;0.80;;
75739;SDS011;64357;51.344;6.550;2023-05-07T12:24:44;2.80;;;0.90;;
75739;SDS011;64357;51.344;6.550;2023-05-07T12:27:16;1.95;;;0.82;;
75739;SDS011;64357;51.344;6.550;2023-05-07T12:29:49;2.25;;;0.70;;
75739;SDS011;64357;51.344;6.550;2023-05-07T12:32:18;3.63;;;1.20;;
75739;SDS011;64357;51.344;6.550;2023-05-07T12:34:46;2.67;;;0.90;;
75739;SDS011;64357;51.344;6.550;2023-05-07T12:37:14;2.22;;;0.80;;
75739;SDS011;64357;51.344;6.550;2023-05-07T12:39:47;4.30;;;0.90;;
75739;SDS011;64357;51.344;6.550;2023-05-07T12:42:16;2.80;;;1.00;;
75739;SDS011;64357;51.344;6.550;2023-05-07T12:44:50;2.97;;;1.00;;
75739;SDS011;64357;51.344;6.550;2023-05-07T12:47:18;3.30;;;0.80;;
75739;SDS011;64357;51.344;6.550;2023-05-07T12:49:43;2.70;;;0.97;;
75739;SDS011;64357;51.344;6.550;2023-05-07T12:52:10;4.30;;;1.00;;
75739;SDS011;64357;51.344;6.550;2023-05-07T12:54:39;4.97;;;1.75;;
75739;SDS011;64357;51.344;6.550;2023-05-07T12:57:05;3.63;;;1.20;;
75739;SDS011;64357;51.344;6.550;2023-05-07T12:59:41;3.25;;;1.17;;
75739;SDS011;64357;51.344;6.550;2023-05-07T13:02:07;4.20;;;1.10;;
75739;SDS011;64357;51.344;6.550;2023-05-07T13:04:33;3.53;;;1.35;;
75739;SDS011;64357;51.344;6.550;2023-05-07T13:06:59;3.03;;;1.00;;
75739;SDS011;64357;51.344;6.550;2023-05-07T13:09:29;2.33;;;0.80;;
75739;SDS011;64357;51.344;6.550;2023-05-07T13:11:56;5.28;;;1.20;;
75739;SDS011;64357;51.344;6.550;2023-05-07T13:14:21;2.65;;;1.30;;
75739;SDS011;64357;51.344;6.550;2023-05-07T13:16:47;3.85;;;1.40;;
75739;SDS011;64357;51.344;6.550;2023-05-07T13:19:15;5.38;;;1.80;;
75739;SDS011;64357;51.344;6.550;2023-05-07T13:21:41;3.80;;;1.45;;
75739;SDS011;64357;51.344;6.550;2023-05-07T13:24:08;9.20;;;1.90;;
75739;SDS011;64357;51.344;6.550;2023-05-07T13:26:33;5.37;;;1.60;;
75739;SDS011;64357;51.344;6.550;2023-05-07T13:28:59;4.67;;;1.60;;
75739;SDS011;64357;51.344;6.550;2023-05-07T13:31:24;5.32;;;1.50;;
75739;SDS011;64357;51.344;6.550;2023-05-07T13:33:50;3.60;;;1.50;;
75739;SDS011;64357;51.344;6.550;2023-05-07T13:36:15;4.40;;;1.70;;
75739;SDS011;64357;51.344;6.550;2023-05-07T13:38:43;5.18;;;2.00;;
75739;SDS011;64357;51.344;6.550;2023-05-07T13:41:08;5.43;;;1.73;;
75739;SDS011;64357;51.344;6.550;2023-05-07T13:43:34;5.00;;;1.87;;
75739;SDS011;64357;51.344;6.550;2023-05-07T13:46:03;4.53;;;1.80;;
75739;SDS011;64357;51.344;6.550;2023-05-07T13:48:29;4.55;;;1.85;;
75739;SDS011;64357;51.344;6.550;2023-05-07T13:50:56;4.95;;;1.80;;
75739;SDS011;64357;51.344;6.550;2023-05-07T13:53:22;6.10;;;2.13;;
75739;SDS011;64357;51.344;6.550;2023-05-07T13:55:47;6.37;;;2.23;;
75739;SDS011;64357;51.344;6.550;2023-05-07T13:58:15;5.45;;;2.15;;
75739;SDS011;64357;51.344;6.550;2023-05-07T14:00:40;4.47;;;2.00;;
75739;SDS011;64357;51.344;6.550;2023-05-07T14:03:05;6.97;;;2.77;;
75739;SDS011;64357;51.344;6.550;2023-05-07T14:05:31;7.27;;;2.70;;
75739;SDS011;64357;51.344;6.550;2023-05-07T14:07:58;5.63;;;2.50;;
75739;SDS011;64357;51.344;6.550;2023-05-07T14:10:24;7.25;;;2.20;;
75739;SDS011;64357;51.344;6.550;2023-05-07T14:12:50;6.35;;;2.28;;
75739;SDS011;64357;51.344;6.550;2023-05-07T14:15:18;5.15;;;2.00;;
75739;SDS011;64357;51.344;6.550;2023-05-07T14:17:43;4.63;;;2.05;;
75739;SDS011;64357;51.344;6.550;2023-05-07T14:20:09;4.97;;;2.00;;
75739;SDS011;64357;51.344;6.550;2023-05-07T14:22:39;4.45;;;1.77;;
75739;SDS011;64357;51.344;6.550;2023-05-07T14:25:05;6.03;;;2.33;;
75739;SDS011;64357;51.344;6.550;2023-05-07T14:27:34;3.92;;;1.83;;
75739;SDS011;64357;51.344;6.550;2023-05-07T14:30:02;5.43;;;2.40;;
75739;SDS011;64357;51.344;6.550;2023-05-07T14:32:27;7.50;;;2.83;;
75739;SDS011;64357;51.344;6.550;2023-05-07T14:34:53;6.55;;;3.05;;
75739;SDS011;64357;51.344;6.550;2023-05-07T14:37:18;9.80;;;3.42;;
75739;SDS011;64357;51.344;6.550;2023-05-07T14:39:44;8.18;;;3.05;;
75739;SDS011;64357;51.344;6.550;2023-05-07T14:42:10;9.60;;;2.97;;
75739;SDS011;64357;51.344;6.550;2023-05-07T14:44:38;7.85;;;2.85;;
75739;SDS011;64357;51.344;6.550;2023-05-07T14:47:06;6.63;;;2.65;;
75739;SDS011;64357;51.344;6.550;2023-05-07T14:49:31;7.28;;;2.60;;
75739;SDS011;64357;51.344;6.550;2023-05-07T14:51:59;6.25;;;3.30;;
75739;SDS011;64357;51.344;6.550;2023-05-07T14:54:25;9.52;;;3.45;;
75739;SDS011;64357;51.344;6.550;2023-05-07T14:56:50;6.40;;;2.83;;
75739;SDS011;64357;51.344;6.550;2023-05-07T14:59:16;8.35;;;3.20;;
75739;SDS011;64357;51.344;6.550;2023-05-07T15:01:45;6.43;;;2.70;;
75739;SDS011;64357;51.344;6.550;2023-05-07T15:04:13;9.13;;;3.60;;
75739;SDS011;64357;51.344;6.550;2023-05-07T15:06:41;7.35;;;3.63;;
75739;SDS011;64357;51.344;6.550;2023-05-07T15:09:07;8.35;;;3.47;;
75739;SDS011;64357;51.344;6.550;2023-05-07T15:11:35;9.25;;;3.35;;
75739;SDS011;64357;51.344;6.550;2023-05-07T15:14:00;7.22;;;3.33;;
75739;SDS011;64357;51.344;6.550;2023-05-07T15:16:26;8.32;;;3.53;;